Аэропорт: Полярный. Удачный

ICAO: UERP

METAR:
2020-06-01 00:30:00
UERP 010030Z 20002MPS 9999 FEW040 SCT100 15/M00 Q1002 R35/090060 NOSIG RMK QFE707
METAR:
2020-05-31 23:00:00
TAF UERP 312300Z 0100/0124 21005MPS 9999 SCT025CB OVC100 TEMPO 0100/0106 -SHRA